sensor_id;sensor_type;location;lat;lon;timestamp;temperature;humidity
19437;DHT22;9854;50.968;4.168;2023-07-24T00:00:21;19.10;99.90
19437;DHT22;9854;50.968;4.168;2023-07-24T00:02:47;19.20;99.90
19437;DHT22;9854;50.968;4.168;2023-07-24T00:05:12;19.00;99.90
19437;DHT22;9854;50.968;4.168;2023-07-24T00:07:38;18.90;99.90
19437;DHT22;9854;50.968;4.168;2023-07-24T00:10:04;18.90;99.90
19437;DHT22;9854;50.968;4.168;2023-07-24T00:12:30;18.80;99.90
19437;DHT22;9854;50.968;4.168;2023-07-24T00:14:55;18.80;99.90
19437;DHT22;9854;50.968;4.168;2023-07-24T00:17:21;18.80;99.90
19437;DHT22;9854;50.968;4.168;2023-07-24T00:19:48;18.80;99.90
19437;DHT22;9854;50.968;4.168;2023-07-24T00:22:14;18.80;99.90
19437;DHT22;9854;50.968;4.168;2023-07-24T00:24:40;18.90;99.90
19437;DHT22;9854;50.968;4.168;2023-07-24T00:27:05;18.80;99.90
19437;DHT22;9854;50.968;4.168;2023-07-24T00:29:31;18.80;99.90
19437;DHT22;9854;50.968;4.168;2023-07-24T00:31:57;18.90;99.90
19437;DHT22;9854;50.968;4.168;2023-07-24T00:34:22;18.90;99.90
19437;DHT22;9854;50.968;4.168;2023-07-24T00:36:48;19.20;99.90
19437;DHT22;9854;50.968;4.168;2023-07-24T00:39:16;19.20;99.90
19437;DHT22;9854;50.968;4.168;2023-07-24T00:41:42;19.30;99.90
19437;DHT22;9854;50.968;4.168;2023-07-24T00:44:08;19.30;99.90
19437;DHT22;9854;50.968;4.168;2023-07-24T00:46:35;19.40;99.90
19437;DHT22;9854;50.968;4.168;2023-07-24T00:49:02;19.30;99.90
19437;DHT22;9854;50.968;4.168;2023-07-24T00:51:28;19.30;99.90
19437;DHT22;9854;50.968;4.168;2023-07-24T00:53:59;19.30;99.90
19437;DHT22;9854;50.968;4.168;2023-07-24T00:56:26;19.30;99.90
19437;DHT22;9854;50.968;4.168;2023-07-24T00:58:52;19.30;99.90
19437;DHT22;9854;50.968;4.168;2023-07-24T01:01:21;19.10;99.90
19437;DHT22;9854;50.968;4.168;2023-07-24T01:03:47;19.10;99.90
19437;DHT22;9854;50.968;4.168;2023-07-24T01:06:13;19.00;99.90
19437;DHT22;9854;50.968;4.168;2023-07-24T01:08:39;19.00;99.90
19437;DHT22;9854;50.968;4.168;2023-07-24T01:11:24;19.20;99.90
19437;DHT22;9854;50.968;4.168;2023-07-24T01:16:42;19.00;99.90
19437;DHT22;9854;50.968;4.168;2023-07-24T01:22:24;18.60;99.90
19437;DHT22;9854;50.968;4.168;2023-07-24T01:25:31;18.40;99.90
19437;DHT22;9854;50.968;4.168;2023-07-24T01:27:57;18.40;99.90
19437;DHT22;9854;50.968;4.168;2023-07-24T01:30:23;18.30;99.90
19437;DHT22;9854;50.968;4.168;2023-07-24T01:32:49;18.20;99.90
19437;DHT22;9854;50.968;4.168;2023-07-24T01:35:15;18.20;99.90
19437;DHT22;9854;50.968;4.168;2023-07-24T01:37:42;18.20;99.90
19437;DHT22;9854;50.968;4.168;2023-07-24T01:40:10;18.20;99.90
19437;DHT22;9854;50.968;4.168;2023-07-24T01:42:36;18.20;99.90
19437;DHT22;9854;50.968;4.168;2023-07-24T01:45:03;18.10;99.90
19437;DHT22;9854;50.968;4.168;2023-07-24T01:47:29;18.20;99.90
19437;DHT22;9854;50.968;4.168;2023-07-24T01:49:56;18.10;99.90
19437;DHT22;9854;50.968;4.168;2023-07-24T01:52:21;18.00;99.90
19437;DHT22;9854;50.968;4.168;2023-07-24T01:54:47;18.10;99.90
19437;DHT22;9854;50.968;4.168;2023-07-24T01:57:13;18.10;99.90
19437;DHT22;9854;50.968;4.168;2023-07-24T01:59:39;18.10;99.90
19437;DHT22;9854;50.968;4.168;2023-07-24T02:02:04;18.00;99.90
19437;DHT22;9854;50.968;4.168;2023-07-24T02:04:30;17.90;99.90
19437;DHT22;9854;50.968;4.168;2023-07-24T02:06:56;17.90;99.90
19437;DHT22;9854;50.968;4.168;2023-07-24T02:09:21;17.90;99.90
19437;DHT22;9854;50.968;4.168;2023-07-24T02:11:47;17.80;99.90
19437;DHT22;9854;50.968;4.168;2023-07-24T02:14:13;17.90;99.90
19437;DHT22;9854;50.968;4.168;2023-07-24T02:16:40;17.90;99.90
19437;DHT22;9854;50.968;4.168;2023-07-24T02:19:05;18.00;99.90
19437;DHT22;9854;50.968;4.168;2023-07-24T02:21:32;18.00;99.90
19437;DHT22;9854;50.968;4.168;2023-07-24T02:23:57;18.00;99.90
19437;DHT22;9854;50.968;4.168;2023-07-24T02:26:23;18.00;99.90
19437;DHT22;9854;50.968;4.168;2023-07-24T02:28:49;17.90;99.90
19437;DHT22;9854;50.968;4.168;2023-07-24T02:31:14;17.90;99.90
19437;DHT22;9854;50.968;4.168;2023-07-24T02:33:40;17.90;99.90
19437;DHT22;9854;50.968;4.168;2023-07-24T02:36:06;17.90;99.90
19437;DHT22;9854;50.968;4.168;2023-07-24T02:38:31;17.90;99.90
19437;DHT22;9854;50.968;4.168;2023-07-24T02:40:57;18.00;99.90
19437;DHT22;9854;50.968;4.168;2023-07-24T02:43:23;18.00;99.90
19437;DHT22;9854;50.968;4.168;2023-07-24T02:45:48;17.90;99.90
19437;DHT22;9854;50.968;4.168;2023-07-24T02:48:14;18.00;99.90
19437;DHT22;9854;50.968;4.168;2023-07-24T02:50:40;18.00;99.90
19437;DHT22;9854;50.968;4.168;2023-07-24T02:53:05;17.90;99.90
19437;DHT22;9854;50.968;4.168;2023-07-24T02:55:31;17.90;99.90
19437;DHT22;9854;50.968;4.168;2023-07-24T02:57:56;17.90;99.90
19437;DHT22;9854;50.968;4.168;2023-07-24T03:00:22;17.80;99.90
19437;DHT22;9854;50.968;4.168;2023-07-24T03:02:48;17.70;99.90
19437;DHT22;9854;50.968;4.168;2023-07-24T03:05:13;17.70;99.90
19437;DHT22;9854;50.968;4.168;2023-07-24T03:07:39;17.60;99.90
19437;DHT22;9854;50.968;4.168;2023-07-24T03:10:05;17.70;99.90
19437;DHT22;9854;50.968;4.168;2023-07-24T03:12:31;17.70;99.90
19437;DHT22;9854;50.968;4.168;2023-07-24T03:14:56;17.50;99.90
19437;DHT22;9854;50.968;4.168;2023-07-24T03:17:22;17.50;99.90
19437;DHT22;9854;50.968;4.168;2023-07-24T03:19:49;17.60;99.90
19437;DHT22;9854;50.968;4.168;2023-07-24T03:22:14;17.50;99.90
19437;DHT22;9854;50.968;4.168;2023-07-24T03:24:40;17.40;99.90
19437;DHT22;9854;50.968;4.168;2023-07-24T03:27:06;17.30;99.90
19437;DHT22;9854;50.968;4.168;2023-07-24T03:29:31;17.30;99.90
19437;DHT22;9854;50.968;4.168;2023-07-24T03:31:57;17.30;99.90
19437;DHT22;9854;50.968;4.168;2023-07-24T03:34:23;17.20;99.90
19437;DHT22;9854;50.968;4.168;2023-07-24T03:36:48;17.20;99.90
19437;DHT22;9854;50.968;4.168;2023-07-24T03:39:14;17.30;99.90
19437;DHT22;9854;50.968;4.168;2023-07-24T03:41:41;17.10;99.90
19437;DHT22;9854;50.968;4.168;2023-07-24T03:44:07;17.10;99.90
19437;DHT22;9854;50.968;4.168;2023-07-24T03:46:33;17.00;99.90
19437;DHT22;9854;50.968;4.168;2023-07-24T03:48:59;16.90;99.90
19437;DHT22;9854;50.968;4.168;2023-07-24T03:51:24;17.00;99.90
19437;DHT22;9854;50.968;4.168;2023-07-24T03:53:50;17.10;99.90
19437;DHT22;9854;50.968;4.168;2023-07-24T03:56:16;17.00;99.90
19437;DHT22;9854;50.968;4.168;2023-07-24T03:58:41;17.00;99.90
19437;DHT22;9854;50.968;4.168;2023-07-24T04:01:08;17.00;99.90
19437;DHT22;9854;50.968;4.168;2023-07-24T04:03:33;17.10;99.90
19437;DHT22;9854;50.968;4.168;2023-07-24T04:05:59;17.10;99.90
19437;DHT22;9854;50.968;4.168;2023-07-24T04:08:25;17.00;99.90
19437;DHT22;9854;50.968;4.168;2023-07-24T04:10:50;16.90;99.90
19437;DHT22;9854;50.968;4.168;2023-07-24T04:13:16;16.90;99.90
19437;DHT22;9854;50.968;4.168;2023-07-24T04:15:42;16.90;99.90
19437;DHT22;9854;50.968;4.168;2023-07-24T04:18:07;16.90;99.90
19437;DHT22;9854;50.968;4.168;2023-07-24T04:20:33;16.90;99.90
19437;DHT22;9854;50.968;4.168;2023-07-24T04:22:58;17.00;99.90
19437;DHT22;9854;50.968;4.168;2023-07-24T04:25:24;17.10;99.90
19437;DHT22;9854;50.968;4.168;2023-07-24T04:27:50;17.10;99.90
19437;DHT22;9854;50.968;4.168;2023-07-24T04:30:15;17.30;99.90
19437;DHT22;9854;50.968;4.168;2023-07-24T04:32:41;17.30;99.90
19437;DHT22;9854;50.968;4.168;2023-07-24T04:35:07;17.30;99.90
19437;DHT22;9854;50.968;4.168;2023-07-24T04:37:33;17.30;99.90
19437;DHT22;9854;50.968;4.168;2023-07-24T04:39:59;17.50;99.90
19437;DHT22;9854;50.968;4.168;2023-07-24T04:42:24;17.60;99.90
19437;DHT22;9854;50.968;4.168;2023-07-24T04:44:50;17.50;99.90
19437;DHT22;9854;50.968;4.168;2023-07-24T04:47:17;17.50;99.90
19437;DHT22;9854;50.968;4.168;2023-07-24T04:49:42;17.50;99.90
19437;DHT22;9854;50.968;4.168;2023-07-24T04:52:08;17.60;99.90
19437;DHT22;9854;50.968;4.168;2023-07-24T04:54:33;17.50;99.90
19437;DHT22;9854;50.968;4.168;2023-07-24T04:56:59;17.50;99.90
19437;DHT22;9854;50.968;4.168;2023-07-24T04:59:25;17.50;99.90
19437;DHT22;9854;50.968;4.168;2023-07-24T05:01:50;17.60;99.90
19437;DHT22;9854;50.968;4.168;2023-07-24T05:04:16;17.70;99.90
19437;DHT22;9854;50.968;4.168;2023-07-24T05:06:41;17.60;99.90
19437;DHT22;9854;50.968;4.168;2023-07-24T05:09:07;17.60;99.90
19437;DHT22;9854;50.968;4.168;2023-07-24T05:11:33;17.60;99.90
19437;DHT22;9854;50.968;4.168;2023-07-24T05:13:58;17.70;99.90
19437;DHT22;9854;50.968;4.168;2023-07-24T05:16:24;17.80;99.90
19437;DHT22;9854;50.968;4.168;2023-07-24T05:18:50;17.70;99.90
19437;DHT22;9854;50.968;4.168;2023-07-24T05:21:15;17.60;99.90
19437;DHT22;9854;50.968;4.168;2023-07-24T05:23:41;17.70;99.90
19437;DHT22;9854;50.968;4.168;2023-07-24T05:26:06;17.70;99.90
19437;DHT22;9854;50.968;4.168;2023-07-24T05:28:32;17.60;99.90
19437;DHT22;9854;50.968;4.168;2023-07-24T05:31:02;17.70;99.90
19437;DHT22;9854;50.968;4.168;2023-07-24T05:33:28;17.70;99.90
19437;DHT22;9854;50.968;4.168;2023-07-24T05:36:00;17.80;99.90
19437;DHT22;9854;50.968;4.168;2023-07-24T05:38:27;17.80;99.90
19437;DHT22;9854;50.968;4.168;2023-07-24T05:41:03;17.70;99.90
19437;DHT22;9854;50.968;4.168;2023-07-24T05:43:29;17.80;99.90
19437;DHT22;9854;50.968;4.168;2023-07-24T05:45:56;17.90;99.90
19437;DHT22;9854;50.968;4.168;2023-07-24T05:48:22;18.00;99.90
19437;DHT22;9854;50.968;4.168;2023-07-24T05:50:49;18.00;99.90
19437;DHT22;9854;50.968;4.168;2023-07-24T05:53:15;18.20;99.90
19437;DHT22;9854;50.968;4.168;2023-07-24T05:55:41;18.00;99.90
19437;DHT22;9854;50.968;4.168;2023-07-24T05:58:08;17.90;99.90
19437;DHT22;9854;50.968;4.168;2023-07-24T06:00:33;17.80;99.90
19437;DHT22;9854;50.968;4.168;2023-07-24T06:02:59;18.10;99.90
19437;DHT22;9854;50.968;4.168;2023-07-24T06:05:25;18.20;99.90
19437;DHT22;9854;50.968;4.168;2023-07-24T06:07:51;18.20;99.90
19437;DHT22;9854;50.968;4.168;2023-07-24T06:10:16;18.30;99.90
19437;DHT22;9854;50.968;4.168;2023-07-24T06:12:42;18.20;99.90
19437;DHT22;9854;50.968;4.168;2023-07-24T06:15:08;18.20;99.90
19437;DHT22;9854;50.968;4.168;2023-07-24T06:17:33;18.20;99.90
19437;DHT22;9854;50.968;4.168;2023-07-24T06:19:59;18.10;99.90
19437;DHT22;9854;50.968;4.168;2023-07-24T06:22:25;18.30;99.90
19437;DHT22;9854;50.968;4.168;2023-07-24T06:24:50;18.40;99.90
19437;DHT22;9854;50.968;4.168;2023-07-24T06:27:16;18.60;99.90
19437;DHT22;9854;50.968;4.168;2023-07-24T06:29:42;18.60;99.90
19437;DHT22;9854;50.968;4.168;2023-07-24T06:32:08;18.60;99.90
19437;DHT22;9854;50.968;4.168;2023-07-24T06:34:34;18.40;99.90
19437;DHT22;9854;50.968;4.168;2023-07-24T06:36:59;18.20;99.90
19437;DHT22;9854;50.968;4.168;2023-07-24T06:39:25;18.20;99.90
19437;DHT22;9854;50.968;4.168;2023-07-24T06:41:52;18.20;99.90
19437;DHT22;9854;50.968;4.168;2023-07-24T06:44:18;18.40;99.90
19437;DHT22;9854;50.968;4.168;2023-07-24T06:46:44;18.50;99.90
19437;DHT22;9854;50.968;4.168;2023-07-24T06:49:09;18.40;99.90
19437;DHT22;9854;50.968;4.168;2023-07-24T06:51:36;18.20;99.90
19437;DHT22;9854;50.968;4.168;2023-07-24T06:54:04;18.10;99.90
19437;DHT22;9854;50.968;4.168;2023-07-24T06:56:30;18.00;99.90
19437;DHT22;9854;50.968;4.168;2023-07-24T06:58:55;17.90;99.90
19437;DHT22;9854;50.968;4.168;2023-07-24T07:01:21;17.80;99.90
19437;DHT22;9854;50.968;4.168;2023-07-24T07:03:46;17.60;99.90
19437;DHT22;9854;50.968;4.168;2023-07-24T07:06:12;17.60;99.90
19437;DHT22;9854;50.968;4.168;2023-07-24T07:08:38;17.70;99.90
19437;DHT22;9854;50.968;4.168;2023-07-24T07:11:03;17.70;99.90
19437;DHT22;9854;50.968;4.168;2023-07-24T07:13:29;17.60;99.90
19437;DHT22;9854;50.968;4.168;2023-07-24T07:15:54;17.80;99.90
19437;DHT22;9854;50.968;4.168;2023-07-24T07:18:20;17.90;99.90
19437;DHT22;9854;50.968;4.168;2023-07-24T07:20:50;18.00;99.90
19437;DHT22;9854;50.968;4.168;2023-07-24T07:23:15;18.20;99.90
19437;DHT22;9854;50.968;4.168;2023-07-24T07:25:42;18.10;99.90
19437;DHT22;9854;50.968;4.168;2023-07-24T07:28:15;18.30;99.90
19437;DHT22;9854;50.968;4.168;2023-07-24T07:30:41;18.40;99.90
19437;DHT22;9854;50.968;4.168;2023-07-24T07:33:07;18.50;99.90
19437;DHT22;9854;50.968;4.168;2023-07-24T07:35:33;18.60;99.90
19437;DHT22;9854;50.968;4.168;2023-07-24T07:37:59;18.60;99.90
19437;DHT22;9854;50.968;4.168;2023-07-24T07:40:25;18.60;99.90
19437;DHT22;9854;50.968;4.168;2023-07-24T07:42:53;18.80;99.90
19437;DHT22;9854;50.968;4.168;2023-07-24T07:45:18;19.00;99.90
19437;DHT22;9854;50.968;4.168;2023-07-24T07:47:44;19.10;99.90
19437;DHT22;9854;50.968;4.168;2023-07-24T07:50:10;19.10;99.90
19437;DHT22;9854;50.968;4.168;2023-07-24T07:52:36;19.30;99.90
19437;DHT22;9854;50.968;4.168;2023-07-24T07:55:01;19.40;99.90
19437;DHT22;9854;50.968;4.168;2023-07-24T07:57:27;19.30;99.90
19437;DHT22;9854;50.968;4.168;2023-07-24T07:59:53;19.20;99.90
19437;DHT22;9854;50.968;4.168;2023-07-24T08:02:18;19.30;99.90
19437;DHT22;9854;50.968;4.168;2023-07-24T08:04:44;19.40;99.90
19437;DHT22;9854;50.968;4.168;2023-07-24T08:07:10;19.30;99.90
19437;DHT22;9854;50.968;4.168;2023-07-24T08:09:35;19.50;99.90
19437;DHT22;9854;50.968;4.168;2023-07-24T08:12:03;19.60;99.90
19437;DHT22;9854;50.968;4.168;2023-07-24T08:14:30;19.40;99.90
19437;DHT22;9854;50.968;4.168;2023-07-24T08:16:55;19.40;99.90
19437;DHT22;9854;50.968;4.168;2023-07-24T08:19:21;19.50;99.90
19437;DHT22;9854;50.968;4.168;2023-07-24T08:21:47;19.70;99.90
19437;DHT22;9854;50.968;4.168;2023-07-24T08:24:12;19.90;99.90
19437;DHT22;9854;50.968;4.168;2023-07-24T08:26:38;19.80;99.90
19437;DHT22;9854;50.968;4.168;2023-07-24T08:29:04;19.90;99.90
19437;DHT22;9854;50.968;4.168;2023-07-24T08:31:30;19.70;99.90
19437;DHT22;9854;50.968;4.168;2023-07-24T08:33:56;19.50;99.90
19437;DHT22;9854;50.968;4.168;2023-07-24T08:36:21;19.30;99.90
19437;DHT22;9854;50.968;4.168;2023-07-24T08:38:47;19.30;99.90
19437;DHT22;9854;50.968;4.168;2023-07-24T08:41:14;19.50;99.90
19437;DHT22;9854;50.968;4.168;2023-07-24T08:43:42;19.50;99.90
19437;DHT22;9854;50.968;4.168;2023-07-24T08:46:08;19.50;99.90
19437;DHT22;9854;50.968;4.168;2023-07-24T08:48:39;19.40;99.90
19437;DHT22;9854;50.968;4.168;2023-07-24T08:51:06;19.60;99.90
19437;DHT22;9854;50.968;4.168;2023-07-24T08:53:36;19.60;99.90
19437;DHT22;9854;50.968;4.168;2023-07-24T08:56:03;19.60;99.90
19437;DHT22;9854;50.968;4.168;2023-07-24T08:58:29;19.40;99.90
19437;DHT22;9854;50.968;4.168;2023-07-24T09:00:57;19.20;99.90
19437;DHT22;9854;50.968;4.168;2023-07-24T09:03:22;19.20;99.90
19437;DHT22;9854;50.968;4.168;2023-07-24T09:05:48;19.40;99.90
19437;DHT22;9854;50.968;4.168;2023-07-24T09:08:14;19.60;99.90
19437;DHT22;9854;50.968;4.168;2023-07-24T09:10:40;19.80;99.90
19437;DHT22;9854;50.968;4.168;2023-07-24T09:13:06;19.60;99.90
19437;DHT22;9854;50.968;4.168;2023-07-24T09:15:44;19.40;99.90
19437;DHT22;9854;50.968;4.168;2023-07-24T09:18:10;19.30;99.90
19437;DHT22;9854;50.968;4.168;2023-07-24T09:20:42;19.20;99.90
19437;DHT22;9854;50.968;4.168;2023-07-24T09:23:08;19.40;99.90
19437;DHT22;9854;50.968;4.168;2023-07-24T09:25:35;19.50;99.90
19437;DHT22;9854;50.968;4.168;2023-07-24T09:28:09;19.70;99.90
19437;DHT22;9854;50.968;4.168;2023-07-24T09:30:35;20.00;99.90
19437;DHT22;9854;50.968;4.168;2023-07-24T09:33:00;20.30;99.90
19437;DHT22;9854;50.968;4.168;2023-07-24T09:35:26;20.50;99.90
19437;DHT22;9854;50.968;4.168;2023-07-24T09:38:07;20.50;99.90
19437;DHT22;9854;50.968;4.168;2023-07-24T09:40:53;20.50;99.90
19437;DHT22;9854;50.968;4.168;2023-07-24T09:43:23;20.50;99.90
19437;DHT22;9854;50.968;4.168;2023-07-24T09:45:50;20.40;99.90
19437;DHT22;9854;50.968;4.168;2023-07-24T09:48:18;20.60;99.90
19437;DHT22;9854;50.968;4.168;2023-07-24T09:50:45;20.70;99.90
19437;DHT22;9854;50.968;4.168;2023-07-24T09:53:33;20.90;99.90
19437;DHT22;9854;50.968;4.168;2023-07-24T09:56:04;21.30;99.90
19437;DHT22;9854;50.968;4.168;2023-07-24T09:58:33;21.20;99.90
19437;DHT22;9854;50.968;4.168;2023-07-24T10:01:01;21.20;99.90
19437;DHT22;9854;50.968;4.168;2023-07-24T10:03:28;21.00;99.90
19437;DHT22;9854;50.968;4.168;2023-07-24T10:05:54;21.10;99.90
19437;DHT22;9854;50.968;4.168;2023-07-24T10:08:21;21.30;99.90
19437;DHT22;9854;50.968;4.168;2023-07-24T10:10:46;21.30;99.90
19437;DHT22;9854;50.968;4.168;2023-07-24T10:13:16;21.20;99.90
19437;DHT22;9854;50.968;4.168;2023-07-24T10:15:43;21.40;99.90
19437;DHT22;9854;50.968;4.168;2023-07-24T10:18:09;21.30;99.90
19437;DHT22;9854;50.968;4.168;2023-07-24T10:20:40;21.30;99.90
19437;DHT22;9854;50.968;4.168;2023-07-24T10:23:07;21.00;99.90
19437;DHT22;9854;50.968;4.168;2023-07-24T10:25:35;20.60;99.90
19437;DHT22;9854;50.968;4.168;2023-07-24T10:28:05;20.30;99.90
19437;DHT22;9854;50.968;4.168;2023-07-24T10:30:39;19.90;99.90
19437;DHT22;9854;50.968;4.168;2023-07-24T10:33:13;20.00;99.90
19437;DHT22;9854;50.968;4.168;2023-07-24T10:35:44;19.90;99.90
19437;DHT22;9854;50.968;4.168;2023-07-24T10:38:12;20.00;99.90
19437;DHT22;9854;50.968;4.168;2023-07-24T10:40:44;19.90;99.90
19437;DHT22;9854;50.968;4.168;2023-07-24T10:43:14;19.90;99.90
19437;DHT22;9854;50.968;4.168;2023-07-24T10:45:53;19.80;99.90
19437;DHT22;9854;50.968;4.168;2023-07-24T10:48:21;19.90;99.90
19437;DHT22;9854;50.968;4.168;2023-07-24T10:50:48;20.00;99.90
19437;DHT22;9854;50.968;4.168;2023-07-24T10:53:18;20.20;99.90
19437;DHT22;9854;50.968;4.168;2023-07-24T10:55:44;20.60;99.90
19437;DHT22;9854;50.968;4.168;2023-07-24T10:58:13;21.00;99.90
19437;DHT22;9854;50.968;4.168;2023-07-24T11:00:39;21.30;99.90
19437;DHT22;9854;50.968;4.168;2023-07-24T11:03:12;21.50;99.90
19437;DHT22;9854;50.968;4.168;2023-07-24T11:05:42;21.50;99.90
19437;DHT22;9854;50.968;4.168;2023-07-24T11:08:10;21.40;99.90
19437;DHT22;9854;50.968;4.168;2023-07-24T11:13:16;22.00;99.90
19437;DHT22;9854;50.968;4.168;2023-07-24T11:15:43;21.80;99.90
19437;DHT22;9854;50.968;4.168;2023-07-24T11:18:08;21.80;99.90
19437;DHT22;9854;50.968;4.168;2023-07-24T11:20:48;21.70;99.90
19437;DHT22;9854;50.968;4.168;2023-07-24T11:23:14;21.80;99.90
19437;DHT22;9854;50.968;4.168;2023-07-24T11:25:40;21.80;99.90
19437;DHT22;9854;50.968;4.168;2023-07-24T11:28:07;21.60;99.90
19437;DHT22;9854;50.968;4.168;2023-07-24T11:30:34;21.60;99.90
19437;DHT22;9854;50.968;4.168;2023-07-24T11:33:01;21.90;99.90
19437;DHT22;9854;50.968;4.168;2023-07-24T11:35:27;22.10;99.90
19437;DHT22;9854;50.968;4.168;2023-07-24T11:37:53;22.10;99.90
19437;DHT22;9854;50.968;4.168;2023-07-24T11:40:19;21.90;99.90
19437;DHT22;9854;50.968;4.168;2023-07-24T11:42:47;21.80;99.90
19437;DHT22;9854;50.968;4.168;2023-07-24T11:45:14;21.90;99.90
19437;DHT22;9854;50.968;4.168;2023-07-24T11:47:47;22.10;99.90
19437;DHT22;9854;50.968;4.168;2023-07-24T11:50:14;22.10;99.90
19437;DHT22;9854;50.968;4.168;2023-07-24T11:52:48;22.40;99.90
19437;DHT22;9854;50.968;4.168;2023-07-24T11:55:18;22.20;99.90
19437;DHT22;9854;50.968;4.168;2023-07-24T11:58:04;22.30;99.90
19437;DHT22;9854;50.968;4.168;2023-07-24T12:00:33;22.00;99.90
19437;DHT22;9854;50.968;4.168;2023-07-24T12:03:02;22.00;99.90
19437;DHT22;9854;50.968;4.168;2023-07-24T12:05:37;22.10;99.90
19437;DHT22;9854;50.968;4.168;2023-07-24T12:08:02;22.30;99.90
19437;DHT22;9854;50.968;4.168;2023-07-24T12:10:28;22.60;99.90
19437;DHT22;9854;50.968;4.168;2023-07-24T12:12:55;22.70;99.90
19437;DHT22;9854;50.968;4.168;2023-07-24T12:15:23;22.70;99.90
19437;DHT22;9854;50.968;4.168;2023-07-24T12:17:48;22.50;99.90
19437;DHT22;9854;50.968;4.168;2023-07-24T12:20:14;22.20;99.90
19437;DHT22;9854;50.968;4.168;2023-07-24T12:22:41;22.10;99.90
19437;DHT22;9854;50.968;4.168;2023-07-24T12:25:06;22.00;99.90
19437;DHT22;9854;50.968;4.168;2023-07-24T12:27:32;22.10;99.90
19437;DHT22;9854;50.968;4.168;2023-07-24T12:29:59;22.20;99.90
19437;DHT22;9854;50.968;4.168;2023-07-24T12:32:25;22.30;99.90
19437;DHT22;9854;50.968;4.168;2023-07-24T12:34:53;22.70;99.90
19437;DHT22;9854;50.968;4.168;2023-07-24T12:37:19;23.30;99.90
19437;DHT22;9854;50.968;4.168;2023-07-24T12:39:46;23.40;99.90
19437;DHT22;9854;50.968;4.168;2023-07-24T12:42:12;23.90;99.90
19437;DHT22;9854;50.968;4.168;2023-07-24T12:44:37;23.90;99.90
19437;DHT22;9854;50.968;4.168;2023-07-24T12:47:04;23.90;99.90
19437;DHT22;9854;50.968;4.168;2023-07-24T12:49:30;23.90;99.90
19437;DHT22;9854;50.968;4.168;2023-07-24T12:51:55;23.90;99.90
19437;DHT22;9854;50.968;4.168;2023-07-24T12:54:21;23.80;99.90
19437;DHT22;9854;50.968;4.168;2023-07-24T12:56:48;23.50;99.90
19437;DHT22;9854;50.968;4.168;2023-07-24T12:59:13;23.70;99.90
19437;DHT22;9854;50.968;4.168;2023-07-24T13:01:39;23.70;99.90
19437;DHT22;9854;50.968;4.168;2023-07-24T13:04:05;23.70;99.90
19437;DHT22;9854;50.968;4.168;2023-07-24T13:06:30;23.70;99.90
19437;DHT22;9854;50.968;4.168;2023-07-24T13:08:56;23.70;99.90
19437;DHT22;9854;50.968;4.168;2023-07-24T13:11:22;24.00;99.90
19437;DHT22;9854;50.968;4.168;2023-07-24T13:13:47;24.20;99.90
19437;DHT22;9854;50.968;4.168;2023-07-24T13:16:15;24.10;99.90
19437;DHT22;9854;50.968;4.168;2023-07-24T13:18:41;24.30;99.90
19437;DHT22;9854;50.968;4.168;2023-07-24T13:21:07;24.10;99.90
19437;DHT22;9854;50.968;4.168;2023-07-24T13:23:33;23.70;99.90
19437;DHT22;9854;50.968;4.168;2023-07-24T13:25:59;23.70;99.90
19437;DHT22;9854;50.968;4.168;2023-07-24T13:28:25;23.60;99.90
19437;DHT22;9854;50.968;4.168;2023-07-24T13:30:50;23.70;99.90
19437;DHT22;9854;50.968;4.168;2023-07-24T13:33:16;23.20;99.90
19437;DHT22;9854;50.968;4.168;2023-07-24T13:35:41;23.10;99.90
19437;DHT22;9854;50.968;4.168;2023-07-24T13:38:07;23.20;99.90
19437;DHT22;9854;50.968;4.168;2023-07-24T13:40:36;23.00;99.90
19437;DHT22;9854;50.968;4.168;2023-07-24T13:43:02;23.10;99.90
19437;DHT22;9854;50.968;4.168;2023-07-24T13:45:28;23.00;99.90
19437;DHT22;9854;50.968;4.168;2023-07-24T13:47:57;23.00;99.90
19437;DHT22;9854;50.968;4.168;2023-07-24T13:50:23;22.50;99.90
19437;DHT22;9854;50.968;4.168;2023-07-24T13:52:48;22.40;99.90
19437;DHT22;9854;50.968;4.168;2023-07-24T13:55:14;22.40;99.90
19437;DHT22;9854;50.968;4.168;2023-07-24T13:57:40;22.00;99.90
19437;DHT22;9854;50.968;4.168;2023-07-24T14:00:06;21.20;99.90
19437;DHT22;9854;50.968;4.168;2023-07-24T14:02:32;20.70;99.90
19437;DHT22;9854;50.968;4.168;2023-07-24T14:04:58;20.10;99.90
19437;DHT22;9854;50.968;4.168;2023-07-24T14:07:23;19.60;99.90
19437;DHT22;9854;50.968;4.168;2023-07-24T14:09:49;19.60;99.90
19437;DHT22;9854;50.968;4.168;2023-07-24T14:12:15;19.40;99.90
19437;DHT22;9854;50.968;4.168;2023-07-24T14:14:40;19.10;99.90
19437;DHT22;9854;50.968;4.168;2023-07-24T14:17:06;18.80;99.90
19437;DHT22;9854;50.968;4.168;2023-07-24T14:19:31;18.60;99.90
19437;DHT22;9854;50.968;4.168;2023-07-24T14:21:57;18.50;99.90
19437;DHT22;9854;50.968;4.168;2023-07-24T14:24:23;18.30;99.90
19437;DHT22;9854;50.968;4.168;2023-07-24T14:26:48;18.10;99.90
19437;DHT22;9854;50.968;4.168;2023-07-24T14:29:14;17.90;99.90
19437;DHT22;9854;50.968;4.168;2023-07-24T14:31:43;17.50;99.90
19437;DHT22;9854;50.968;4.168;2023-07-24T14:34:08;17.10;99.90
19437;DHT22;9854;50.968;4.168;2023-07-24T14:36:36;17.00;99.90
19437;DHT22;9854;50.968;4.168;2023-07-24T14:39:03;17.00;99.90
19437;DHT22;9854;50.968;4.168;2023-07-24T14:41:29;17.30;99.90
19437;DHT22;9854;50.968;4.168;2023-07-24T14:43:55;17.60;99.90
19437;DHT22;9854;50.968;4.168;2023-07-24T14:46:20;17.70;99.90
19437;DHT22;9854;50.968;4.168;2023-07-24T14:48:46;17.80;99.90
19437;DHT22;9854;50.968;4.168;2023-07-24T14:51:12;17.90;99.90
19437;DHT22;9854;50.968;4.168;2023-07-24T14:53:37;17.80;99.90
19437;DHT22;9854;50.968;4.168;2023-07-24T14:56:04;17.70;99.90
19437;DHT22;9854;50.968;4.168;2023-07-24T14:58:29;17.80;99.90
19437;DHT22;9854;50.968;4.168;2023-07-24T15:00:55;17.80;99.90
19437;DHT22;9854;50.968;4.168;2023-07-24T15:03:22;18.00;99.90
19437;DHT22;9854;50.968;4.168;2023-07-24T15:05:48;18.00;99.90
19437;DHT22;9854;50.968;4.168;2023-07-24T15:08:14;18.50;99.90
19437;DHT22;9854;50.968;4.168;2023-07-24T15:10:39;19.30;99.90
19437;DHT22;9854;50.968;4.168;2023-07-24T15:13:05;20.00;99.90
19437;DHT22;9854;50.968;4.168;2023-07-24T15:15:31;21.10;99.90
19437;DHT22;9854;50.968;4.168;2023-07-24T15:17:58;21.80;99.90
19437;DHT22;9854;50.968;4.168;2023-07-24T15:20:24;22.40;99.90
19437;DHT22;9854;50.968;4.168;2023-07-24T15:22:50;22.80;99.90
19437;DHT22;9854;50.968;4.168;2023-07-24T15:25:18;23.30;99.90
19437;DHT22;9854;50.968;4.168;2023-07-24T15:27:44;24.00;99.90
19437;DHT22;9854;50.968;4.168;2023-07-24T15:30:10;24.40;99.90
19437;DHT22;9854;50.968;4.168;2023-07-24T15:32:35;24.30;99.90
19437;DHT22;9854;50.968;4.168;2023-07-24T15:35:01;24.40;99.90
19437;DHT22;9854;50.968;4.168;2023-07-24T15:37:27;24.00;99.90
19437;DHT22;9854;50.968;4.168;2023-07-24T15:39:55;23.20;99.90
19437;DHT22;9854;50.968;4.168;2023-07-24T15:42:20;22.50;99.90
19437;DHT22;9854;50.968;4.168;2023-07-24T15:44:48;21.50;99.90
19437;DHT22;9854;50.968;4.168;2023-07-24T15:47:14;20.70;99.90
19437;DHT22;9854;50.968;4.168;2023-07-24T15:49:39;20.60;99.90